Time;durP1;ratioP1;P1;durP2;ratioP2;P2;SDS_P1;SDS_P2;PMS_P1;PMS_P2;Temp;Humidity;BMP_temperature;BMP_pressure;BME280_temperature;BME280_humidity;BME280_pressure;Samples;Min_cycle;Max_cycle;Signal;HPM_P1;HPM_P2
2021/05/20 00:02:21;;;;;;;;;;;;;;;10.24;100.00;98255.67;1664388;84;20242;-60
2021/05/20 00:04:47;;;;;;;;;;;;;;;10.25;100.00;98255.40;1661646;84;21144;-61
2021/05/20 00:07:14;;;;;;;;;;;;;;;10.24;100.00;98257.02;1654447;84;20171;-61
2021/05/20 00:09:41;;;;;;;;;;;;;;;10.23;100.00;98256.22;1660354;84;20177;-62
2021/05/20 00:12:08;;;;;;;;;;;;;;;10.24;100.00;98253.81;1661320;84;20456;-62
2021/05/20 00:14:35;;;;;;;;;;;;;;;10.23;100.00;98250.86;1667644;84;20135;-62
2021/05/20 00:17:02;;;;;;;;;;;;;;;10.21;100.00;98260.27;1664826;84;21089;-62
2021/05/20 00:19:28;;;;;;;;;;;;;;;10.19;100.00;98251.70;1660730;84;20241;-62
2021/05/20 00:21:54;;;;;;;;;;;;;;;10.19;100.00;98255.72;1662977;84;20533;-62
2021/05/20 00:24:21;;;;;;;;;;;;;;;10.17;100.00;98255.23;1659969;84;20447;-63
2021/05/20 00:26:48;;;;;;;;;;;;;;;10.18;100.00;98256.81;1658984;84;20587;-62
2021/05/20 00:29:14;;;;;;;;;;;;;;;10.13;100.00;98256.86;1661926;84;21107;-61
2021/05/20 00:31:40;;;;;;;;;;;;;;;10.14;100.00;98260.59;1667960;84;20135;-62
2021/05/20 00:34:07;;;;;;;;;;;;;;;10.15;100.00;98263.55;1670960;84;20544;-62
2021/05/20 00:36:34;;;;;;;;;;;;;;;10.14;100.00;98254.43;1651685;84;20133;-64
2021/05/20 00:39:02;;;;;;;;;;;;;;;10.14;100.00;98251.75;1662796;84;20515;-62
2021/05/20 00:41:30;;;;;;;;;;;;;;;10.14;100.00;98253.09;1661583;84;21708;-63
2021/05/20 00:43:57;;;;;;;;;;;;;;;10.12;100.00;98252.05;1667577;84;20593;-63
2021/05/20 00:46:25;;;;;;;;;;;;;;;10.13;100.00;98256.86;1659127;84;20510;-63
2021/05/20 00:48:52;;;;;;;;;;;;;;;10.16;100.00;98250.39;1659232;84;20210;-61
2021/05/20 00:51:18;;;;;;;;;;;;;;;10.13;100.00;98252.30;1661204;84;20190;-62
2021/05/20 00:53:48;;;;;;;;;;;;;;;10.15;100.00;98249.34;1658882;84;21156;-62
2021/05/20 00:56:15;;;;;;;;;;;;;;;10.15;100.00;98251.48;1655144;84;20187;-62
2021/05/20 00:58:45;;;;;;;;;;;;;;;10.17;100.00;98252.00;1661841;84;20177;-62
2021/05/20 01:01:13;;;;;;;;;;;;;;;10.16;100.00;98246.36;1666357;84;20171;-63
2021/05/20 01:03:40;;;;;;;;;;;;;;;10.12;100.00;98245.34;1660561;84;20652;-62
2021/05/20 01:06:07;;;;;;;;;;;;;;;10.13;100.00;98240.23;1663736;84;21114;-63
2021/05/20 01:08:33;;;;;;;;;;;;;;;10.13;100.00;98244.25;1659189;84;20152;-63
2021/05/20 01:11:00;;;;;;;;;;;;;;;10.13;100.00;98246.14;1657606;84;20167;-64
2021/05/20 01:13:27;;;;;;;;;;;;;;;10.12;100.00;98241.84;1656124;84;20815;-64
2021/05/20 01:15:54;;;;;;;;;;;;;;;10.09;100.00;98237.33;1661010;84;20154;-64
2021/05/20 01:18:20;;;;;;;;;;;;;;;10.04;100.00;98240.06;1661753;84;21119;-65
2021/05/20 01:20:48;;;;;;;;;;;;;;;10.02;100.00;98236.86;1662665;84;20507;-65
2021/05/20 01:23:16;;;;;;;;;;;;;;;9.99;100.00;98233.37;1660752;84;20520;-64
2021/05/20 01:25:46;;;;;;;;;;;;;;;9.95;100.00;98236.38;1658568;84;20132;-65
2021/05/20 01:28:16;;;;;;;;;;;;;;;9.94;100.00;98235.31;1656779;84;20150;-65
2021/05/20 01:30:43;;;;;;;;;;;;;;;9.94;100.00;98239.33;1658655;84;21066;-65
2021/05/20 01:33:10;;;;;;;;;;;;;;;9.93;100.00;98236.41;1662667;84;20218;-65
2021/05/20 01:35:37;;;;;;;;;;;;;;;9.93;100.00;98241.77;1655990;84;20142;-65
2021/05/20 01:40:50;;;;;;;;;;;;;;;9.91;100.00;98235.88;1662007;84;20163;-64
2021/05/20 01:43:17;;;;;;;;;;;;;;;9.89;100.00;98244.19;1663054;84;21094;-63
2021/05/20 01:45:51;;;;;;;;;;;;;;;9.86;100.00;98238.86;1661625;84;20222;-64
2021/05/20 01:48:15;;;;;;;;;;;;;;;9.87;100.00;98241.81;1665697;84;20150;-64
2021/05/20 01:50:42;;;;;;;;;;;;;;;9.88;100.00;98241.27;1673418;84;20155;-64
2021/05/20 01:53:10;;;;;;;;;;;;;;;9.88;100.00;98242.06;1662684;84;20139;-65
2021/05/20 01:55:36;;;;;;;;;;;;;;;9.90;100.00;98236.43;1660284;84;21116;-64
2021/05/20 01:58:03;;;;;;;;;;;;;;;9.85;100.00;98231.11;1657268;84;20268;-65
2021/05/20 02:00:29;;;;;;;;;;;;;;;9.84;100.00;98236.20;1679032;84;20178;-62
2021/05/20 02:02:56;;;;;;;;;;;;;;;9.84;100.00;98224.93;1661834;84;20158;-65
2021/05/20 02:05:22;;;;;;;;;;;;;;;9.88;100.00;98240.72;1662494;84;20119;-64
2021/05/20 02:07:48;;;;;;;;;;;;;;;9.86;100.00;98240.74;1663274;84;21178;-64
2021/05/20 02:10:15;;;;;;;;;;;;;;;9.85;100.00;98231.91;1658906;84;20167;-64
2021/05/20 02:12:42;;;;;;;;;;;;;;;9.90;100.00;98241.79;1660520;84;20181;-65
2021/05/20 02:15:10;;;;;;;;;;;;;;;9.95;100.00;98240.95;1659381;84;20208;-63
2021/05/20 02:17:36;;;;;;;;;;;;;;;9.93;100.00;98243.90;1660105;84;20169;-64
2021/05/20 02:20:07;;;;;;;;;;;;;;;9.94;100.00;98240.13;1657191;84;21101;-63
2021/05/20 02:22:34;;;;;;;;;;;;;;;9.93;100.00;98243.90;1660704;84;20143;-65
2021/05/20 02:25:04;;;;;;;;;;;;;;;9.97;100.00;98240.10;1635428;84;20171;-63
2021/05/20 02:27:30;;;;;;;;;;;;;;;10.00;100.00;98244.38;1662192;84;20139;-64
2021/05/20 02:29:57;;;;;;;;;;;;;;;10.01;100.00;98241.15;1658638;84;20137;-62
2021/05/20 02:32:24;;;;;;;;;;;;;;;10.01;100.00;98232.56;1662562;84;22196;-63
2021/05/20 02:34:50;;;;;;;;;;;;;;;10.04;100.00;98231.20;1627683;84;20143;-64
2021/05/20 02:37:16;;;;;;;;;;;;;;;10.07;100.00;98240.03;1659825;84;20477;-63
2021/05/20 02:39:43;;;;;;;;;;;;;;;10.00;100.00;98233.66;1668982;84;20855;-62
2021/05/20 02:42:10;;;;;;;;;;;;;;;10.02;100.00;98227.47;1660311;84;20529;-63
2021/05/20 02:44:38;;;;;;;;;;;;;;;10.04;100.00;98229.34;1657080;84;20241;-63
2021/05/20 02:47:04;;;;;;;;;;;;;;;10.06;100.00;98231.72;1662849;84;20586;-64
2021/05/20 02:49:30;;;;;;;;;;;;;;;10.05;100.00;98228.24;1656161;84;20143;-63
2021/05/20 02:51:58;;;;;;;;;;;;;;;10.04;100.00;98225.31;1668109;84;20144;-65
2021/05/20 02:54:24;;;;;;;;;;;;;;;10.05;100.00;98222.88;1664956;84;20188;-64
2021/05/20 02:56:50;;;;;;;;;;;;;;;10.09;100.00;98226.61;1656949;84;21786;-64
2021/05/20 02:59:17;;;;;;;;;;;;;;;10.13;100.00;98217.98;1660442;84;20146;-65
2021/05/20 03:01:45;;;;;;;;;;;;;;;10.15;100.00;98222.53;1656809;84;20508;-65
2021/05/20 03:04:11;;;;;;;;;;;;;;;10.13;100.00;98213.42;1657995;84;20196;-65
2021/05/20 03:06:39;;;;;;;;;;;;;;;10.18;100.00;98220.62;1659905;84;20191;-66
2021/05/20 03:09:07;;;;;;;;;;;;;;;10.20;100.00;98218.46;1660095;84;21030;-66
2021/05/20 03:11:33;;;;;;;;;;;;;;;10.19;100.00;98217.66;1656873;84;20153;-66
2021/05/20 03:14:00;;;;;;;;;;;;;;;10.20;100.00;98217.91;1658490;84;20177;-64
2021/05/20 03:16:28;;;;;;;;;;;;;;;10.25;100.00;98218.41;1667853;84;20209;-64
2021/05/20 03:18:54;;;;;;;;;;;;;;;10.28;100.00;98215.97;1661483;84;20172;-65
2021/05/20 03:21:21;;;;;;;;;;;;;;;10.29;100.00;98212.77;1668665;84;21134;-65
2021/05/20 03:23:49;;;;;;;;;;;;;;;10.31;100.00;98221.30;1659662;84;20215;-65
2021/05/20 03:26:15;;;;;;;;;;;;;;;10.32;100.00;98216.77;1658024;84;20139;-65
2021/05/20 03:28:43;;;;;;;;;;;;;;;10.41;100.00;98217.72;1656316;84;20122;-65
2021/05/20 03:31:11;;;;;;;;;;;;;;;10.45;100.00;98221.44;1661139;84;20216;-64
2021/05/20 03:33:40;;;;;;;;;;;;;;;10.44;100.00;98221.98;1677084;84;21122;-64
2021/05/20 03:36:06;;;;;;;;;;;;;;;10.44;100.00;98214.48;1662540;84;20138;-64
2021/05/20 03:38:33;;;;;;;;;;;;;;;10.44;100.00;98216.63;1659448;84;20146;-65
2021/05/20 03:41:03;;;;;;;;;;;;;;;10.43;100.00;98219.58;1653699;84;20142;-64
2021/05/20 03:43:35;;;;;;;;;;;;;;;10.47;100.00;98218.73;1659107;84;20268;-64
2021/05/20 03:46:02;;;;;;;;;;;;;;;10.45;100.00;98228.94;1663284;84;21108;-65
2021/05/20 03:48:29;;;;;;;;;;;;;;;10.45;100.00;98230.83;1658262;84;20572;-63
2021/05/20 03:50:58;;;;;;;;;;;;;;;10.46;100.00;98225.19;1666716;84;20170;-64
2021/05/20 03:53:29;;;;;;;;;;;;;;;10.47;100.00;98230.80;1660972;84;20497;-64
2021/05/20 03:55:53;;;;;;;;;;;;;;;10.51;100.00;98233.73;1665124;84;20152;-65
2021/05/20 03:58:20;;;;;;;;;;;;;;;10.49;100.00;98238.02;1647334;86;21098;-65
2021/05/20 04:00:46;;;;;;;;;;;;;;;10.48;100.00;98233.75;1659473;84;20133;-63
2021/05/20 04:03:30;;;;;;;;;;;;;;;10.51;100.00;98237.20;1662800;84;20194;-64
2021/05/20 04:06:01;;;;;;;;;;;;;;;10.50;100.00;98235.59;1658789;84;20177;-66
2021/05/20 04:08:28;;;;;;;;;;;;;;;10.52;100.00;98240.67;1672312;84;20496;-64
2021/05/20 04:10:54;;;;;;;;;;;;;;;10.54;100.00;98236.38;1650082;84;21632;-64
2021/05/20 04:13:33;;;;;;;;;;;;;;;10.53;100.00;98242.27;1662393;84;20479;-63
2021/05/20 04:15:59;;;;;;;;;;;;;;;10.48;100.00;98240.98;1659989;84;20154;-64
2021/05/20 04:18:27;;;;;;;;;;;;;;;10.54;100.00;98249.25;1664365;84;20499;-64
2021/05/20 04:20:56;;;;;;;;;;;;;;;10.56;100.00;98251.62;1660512;84;20159;-64
2021/05/20 04:23:23;;;;;;;;;;;;;;;10.61;100.00;98255.62;1659765;84;21168;-65
2021/05/20 04:26:10;;;;;;;;;;;;;;;10.76;100.00;98258.13;1662985;84;20181;-63
2021/05/20 04:28:36;;;;;;;;;;;;;;;10.90;100.00;98261.72;1651212;84;20153;-65
2021/05/20 04:31:02;;;;;;;;;;;;;;;11.09;100.00;98261.73;1659438;84;20526;-63
2021/05/20 04:33:29;;;;;;;;;;;;;;;11.26;100.00;98255.86;1660901;84;20224;-65
2021/05/20 04:35:55;;;;;;;;;;;;;;;11.46;100.00;98255.33;1659734;84;21109;-62
2021/05/20 04:38:23;;;;;;;;;;;;;;;11.56;100.00;98243.08;1659638;84;20126;-63
2021/05/20 04:40:49;;;;;;;;;;;;;;;11.70;100.00;98252.55;1672060;84;20257;-62
2021/05/20 04:43:16;;;;;;;;;;;;;;;11.80;100.00;98254.53;1661542;84;20195;-63
2021/05/20 04:45:44;;;;;;;;;;;;;;;11.88;100.00;98253.11;1659250;84;20233;-63
2021/05/20 04:48:11;;;;;;;;;;;;;;;12.10;100.00;98255.17;1661545;84;21646;-63
2021/05/20 04:50:37;;;;;;;;;;;;;;;12.34;100.00;98256.34;1657342;84;20215;-62
2021/05/20 04:53:04;;;;;;;;;;;;;;;12.50;100.00;98248.80;1650852;84;20216;-67
2021/05/20 04:55:30;;;;;;;;;;;;;;;12.67;100.00;98254.16;1642780;84;20268;-63
2021/05/20 04:57:57;;;;;;;;;;;;;;;12.92;100.00;98258.23;1656549;84;20253;-65
2021/05/20 05:00:26;;;;;;;;;;;;;;;13.03;100.00;98234.83;1653660;84;21097;-63
2021/05/20 05:02:52;;;;;;;;;;;;;;;13.07;100.00;98256.00;1657448;84;20232;-63
2021/05/20 05:05:19;;;;;;;;;;;;;;;13.12;100.00;98252.96;1654172;84;20481;-63
2021/05/20 05:07:46;;;;;;;;;;;;;;;13.19;100.00;98262.23;1661680;84;20194;-65
2021/05/20 05:10:13;;;;;;;;;;;;;;;13.33;100.00;98258.20;1655066;84;20220;-63
2021/05/20 05:12:39;;;;;;;;;;;;;;;13.46;100.00;98267.34;1645472;86;21634;-64
2021/05/20 05:15:07;;;;;;;;;;;;;;;13.45;100.00;98270.59;1644016;86;20268;-64
2021/05/20 05:17:33;;;;;;;;;;;;;;;13.32;100.00;98264.67;1658129;86;20186;-67
2021/05/20 05:20:00;;;;;;;;;;;;;;;13.19;100.00;98263.58;1657396;86;20281;-66
2021/05/20 05:22:27;;;;;;;;;;;;;;;13.14;100.00;98278.50;1613907;86;20204;-66
2021/05/20 05:25:01;;;;;;;;;;;;;;;12.88;100.00;98291.67;1641246;85;21152;-69
2021/05/20 05:27:28;;;;;;;;;;;;;;;12.88;100.00;98294.37;1657405;85;20616;-66
2021/05/20 05:30:16;;;;;;;;;;;;;;;13.01;100.00;98279.33;1659392;85;20184;-69
2021/05/20 05:32:55;;;;;;;;;;;;;;;13.40;100.00;98276.09;1622855;86;20372;-68
2021/05/20 05:35:25;;;;;;;;;;;;;;;13.65;100.00;98296.30;1613684;87;20220;-69
2021/05/20 05:38:19;;;;;;;;;;;;;;;13.65;100.00;98292.25;1591627;90;21154;-69
2021/05/20 05:41:00;;;;;;;;;;;;;;;13.50;100.00;98300.13;1573385;89;20148;-69
2021/05/20 05:50:23;;;;;;;;;;;;;;;14.15;100.00;98310.23;1514256;93;21150;-66
2021/05/20 05:52:50;;;;;;;;;;;;;;;14.10;100.00;98286.86;1484371;95;21141;-64
2021/05/20 05:55:16;;;;;;;;;;;;;;;14.26;100.00;98305.39;1479008;94;20298;-65
2021/05/20 05:58:39;;;;;;;;;;;;;;;14.21;100.00;98314.41;1481731;94;20289;-64
2021/05/20 06:01:05;;;;;;;;;;;;;;;14.03;100.00;98308.63;1516314;93;20550;-63
2021/05/20 06:03:33;;;;;;;;;;;;;;;13.71;100.00;98312.59;1523783;91;20238;-63
2021/05/20 06:05:59;;;;;;;;;;;;;;;13.58;100.00;98323.42;1541612;91;21108;-64
2021/05/20 06:08:48;;;;;;;;;;;;;;;13.55;100.00;98311.88;1563404;89;20210;-65
2021/05/20 06:11:15;;;;;;;;;;;;;;;13.51;100.00;98312.49;1587681;89;20213;-67
2021/05/20 06:13:41;;;;;;;;;;;;;;;13.39;100.00;98300.09;1592813;89;20543;-67
2021/05/20 06:16:08;;;;;;;;;;;;;;;13.36;100.00;98312.83;1604500;87;20174;-66
2021/05/20 06:18:34;;;;;;;;;;;;;;;13.44;100.00;98326.14;1606947;86;21137;-67
2021/05/20 06:21:00;;;;;;;;;;;;;;;13.42;100.00;98318.90;1660968;85;20216;-67
2021/05/20 06:23:27;;;;;;;;;;;;;;;13.54;100.00;98322.42;1666443;85;20241;-67
2021/05/20 06:25:54;;;;;;;;;;;;;;;13.67;100.00;98321.58;1662246;85;20186;-68
2021/05/20 06:28:20;;;;;;;;;;;;;;;13.97;100.00;98314.71;1666039;85;20174;-67
2021/05/20 06:30:47;;;;;;;;;;;;;;;14.15;100.00;98323.16;1662159;85;21678;-68
2021/05/20 06:33:15;;;;;;;;;;;;;;;14.40;100.00;98329.59;1655440;85;20166;-69
2021/05/20 06:35:42;;;;;;;;;;;;;;;14.32;100.00;98335.97;1622135;85;20729;-67
2021/05/20 06:38:08;;;;;;;;;;;;;;;14.19;100.00;98342.80;1654211;84;20262;-67
2021/05/20 06:40:35;;;;;;;;;;;;;;;14.48;100.00;98341.02;1637979;86;20218;-68
2021/05/20 06:43:01;;;;;;;;;;;;;;;14.31;100.00;98341.70;1641489;83;21106;-66
2021/05/20 06:45:27;;;;;;;;;;;;;;;14.39;100.00;98346.91;1641365;86;20177;-67
2021/05/20 06:47:54;;;;;;;;;;;;;;;14.45;100.00;98351.05;1654129;86;20196;-67
2021/05/20 06:50:21;;;;;;;;;;;;;;;14.60;100.00;98341.27;1623908;86;20170;-67
2021/05/20 06:52:50;;;;;;;;;;;;;;;14.83;100.00;98351.46;1645904;86;20221;-68
2021/05/20 06:55:17;;;;;;;;;;;;;;;15.00;100.00;98361.55;1643867;86;21093;-68
2021/05/20 07:00:38;;;;;;;;;;;;;;;14.45;100.00;98360.50;1643520;86;20543;-69
2021/05/20 07:03:05;;;;;;;;;;;;;;;14.33;100.00;98369.98;1648993;86;20172;-69
2021/05/20 07:05:32;;;;;;;;;;;;;;;14.28;100.00;98368.75;1635023;86;20323;-69
2021/05/20 07:08:00;;;;;;;;;;;;;;;14.33;100.00;98371.33;1645170;86;21798;-72
2021/05/20 07:10:28;;;;;;;;;;;;;;;14.43;100.00;98368.93;1646424;86;20226;-71
2021/05/20 07:12:58;;;;;;;;;;;;;;;14.67;100.00;98377.27;1645663;86;20517;-71
2021/05/20 07:15:26;;;;;;;;;;;;;;;14.97;100.00;98371.64;1648857;86;20277;-71
2021/05/20 07:17:52;;;;;;;;;;;;;;;14.93;100.00;98380.11;1630104;85;20326;-70
2021/05/20 07:20:20;;;;;;;;;;;;;;;14.88;100.00;98372.94;1648356;84;21157;-72
2021/05/20 07:22:46;;;;;;;;;;;;;;;15.23;100.00;98383.88;1653982;85;20527;-71
2021/05/20 07:25:13;;;;;;;;;;;;;;;15.19;100.00;98351.29;1649016;85;20274;-72
2021/05/20 07:27:40;;;;;;;;;;;;;;;15.10;100.00;98372.08;1652359;86;20233;-71
2021/05/20 07:30:07;;;;;;;;;;;;;;;15.18;100.00;98391.58;1640385;86;20278;-72
2021/05/20 07:32:34;;;;;;;;;;;;;;;15.44;100.00;98400.34;1650150;86;21430;-73
2021/05/20 07:35:01;;;;;;;;;;;;;;;15.53;100.00;98386.83;1643772;85;20168;-71
2021/05/20 07:37:27;;;;;;;;;;;;;;;15.54;100.00;98404.11;1625326;85;20163;-72
2021/05/20 07:40:00;;;;;;;;;;;;;;;15.61;100.00;98400.39;1666774;84;20202;-72
2021/05/20 07:42:27;;;;;;;;;;;;;;;15.52;100.00;98406.32;1666870;85;20163;-72
2021/05/20 07:44:54;;;;;;;;;;;;;;;16.07;100.00;98406.38;1655879;85;21089;-72
2021/05/20 07:47:22;;;;;;;;;;;;;;;16.50;100.00;98412.33;1660917;85;20211;-71
2021/05/20 07:49:55;;;;;;;;;;;;;;;16.64;100.00;98417.02;1663154;84;20164;-71
2021/05/20 07:52:24;;;;;;;;;;;;;;;16.34;100.00;98424.75;1660678;84;20289;-71
2021/05/20 07:54:52;;;;;;;;;;;;;;;15.89;100.00;98427.20;1635362;85;20234;-71
2021/05/20 07:57:19;;;;;;;;;;;;;;;15.47;100.00;98426.75;1664962;85;21093;-72
2021/05/20 07:59:45;;;;;;;;;;;;;;;15.37;100.00;98427.04;1664979;84;20187;-71
2021/05/20 08:04:46;;;;;;;;;;;;;;;15.29;100.00;98410.23;1657415;84;20332;-72
2021/05/20 08:07:43;;;;;;;;;;;;;;;15.34;100.00;98424.97;1663826;85;20181;-72
2021/05/20 08:10:01;;;;;;;;;;;;;;;15.33;100.00;98426.84;1646589;85;21432;-74
2021/05/20 08:12:19;;;;;;;;;;;;;;;15.40;100.00;98428.55;1642954;86;20348;-71
2021/05/20 08:14:48;;;;;;;;;;;;;;;15.73;100.00;98424.72;1640586;83;20233;-74
2021/05/20 08:17:20;;;;;;;;;;;;;;;15.63;100.00;98427.13;1646198;86;20166;-72
2021/05/20 08:19:46;;;;;;;;;;;;;;;15.94;100.00;98420.28;1648250;85;20328;-71
2021/05/20 08:22:13;;;;;;;;;;;;;;;15.96;100.00;98429.44;1648169;86;21900;-71
2021/05/20 08:24:40;;;;;;;;;;;;;;;15.75;100.00;98438.70;1649212;85;20145;-71
2021/05/20 08:27:11;;;;;;;;;;;;;;;15.86;100.00;98436.74;1641229;86;20175;-71
2021/05/20 08:29:36;;;;;;;;;;;;;;;15.95;100.00;98432.71;1619307;86;20701;-71
2021/05/20 08:32:04;;;;;;;;;;;;;;;16.28;100.00;98433.04;1646025;86;20140;-72
2021/05/20 08:34:31;;;;;;;;;;;;;;;16.67;100.00;98435.33;1641769;86;20605;-71
2021/05/20 08:37:01;;;;;;;;;;;;;;;16.47;100.00;98437.34;1653993;86;20419;-71
2021/05/20 08:39:28;;;;;;;;;;;;;;;15.84;100.00;98433.55;1646783;86;20226;-71
2021/05/20 08:41:54;;;;;;;;;;;;;;;15.54;100.00;98441.97;1637598;86;20270;-69
2021/05/20 08:44:24;;;;;;;;;;;;;;;15.33;100.00;98442.28;1622029;86;20157;-70
2021/05/20 08:46:51;;;;;;;;;;;;;;;15.22;100.00;98442.56;1635828;86;21057;-70
2021/05/20 08:49:17;;;;;;;;;;;;;;;15.27;100.00;98439.48;1647464;86;20168;-69
2021/05/20 08:51:44;;;;;;;;;;;;;;;15.39;100.00;98435.08;1641870;86;20144;-69
2021/05/20 08:54:13;;;;;;;;;;;;;;;15.47;100.00;98430.80;1647119;86;20155;-71
2021/05/20 08:56:44;;;;;;;;;;;;;;;15.23;100.00;98425.78;1610038;86;20549;-73
2021/05/20 08:59:12;;;;;;;;;;;;;;;15.33;100.00;98435.52;1645585;86;21152;-69
2021/05/20 09:01:42;;;;;;;;;;;;;;;15.50;100.00;98436.94;1650451;86;20549;-70
2021/05/20 09:04:09;;;;;;;;;;;;;;;15.76;100.00;98450.57;1629885;86;20179;-70
2021/05/20 09:06:38;;;;;;;;;;;;;;;15.86;100.00;98434.59;1652240;86;20136;-70
2021/05/20 09:09:15;;;;;;;;;;;;;;;15.78;100.00;98440.80;1647856;86;20253;-70
2021/05/20 09:11:39;;;;;;;;;;;;;;;15.80;100.00;98442.08;1652832;86;21128;-70
2021/05/20 09:14:07;;;;;;;;;;;;;;;15.97;100.00;98452.14;1630778;85;20509;-70
2021/05/20 09:16:36;;;;;;;;;;;;;;;15.90;100.00;98448.28;1645282;86;20165;-70
2021/05/20 09:19:03;;;;;;;;;;;;;;;15.88;100.00;98458.09;1652513;86;20498;-69
2021/05/20 09:21:30;;;;;;;;;;;;;;;16.02;100.00;98459.28;1642140;86;20173;-70
2021/05/20 09:23:59;;;;;;;;;;;;;;;16.01;99.95;98462.55;1645393;86;21534;-70
2021/05/20 09:26:37;;;;;;;;;;;;;;;16.13;98.13;98457.88;1616241;86;20125;-70
2021/05/20 09:29:08;;;;;;;;;;;;;;;16.14;100.00;98469.50;1649933;86;20233;-70
2021/05/20 09:31:43;;;;;;;;;;;;;;;15.98;98.94;98461.05;1649211;86;20145;-70
2021/05/20 09:34:16;;;;;;;;;;;;;;;15.91;99.58;98468.27;1656047;86;20579;-71
2021/05/20 09:36:47;;;;;;;;;;;;;;;16.24;96.24;98457.00;1650249;86;21524;-70
2021/05/20 09:39:14;;;;;;;;;;;;;;;16.81;87.98;98466.34;1644979;86;20179;-71
2021/05/20 09:41:41;;;;;;;;;;;;;;;16.85;91.22;98465.12;1643855;86;20259;-71
2021/05/20 09:44:29;;;;;;;;;;;;;;;17.08;92.32;98466.53;1645960;86;20586;-71
2021/05/20 09:46:56;;;;;;;;;;;;;;;17.02;92.80;98479.21;1645786;86;20461;-71
2021/05/20 09:49:28;;;;;;;;;;;;;;;16.50;93.72;98478.69;1643905;86;21159;-69
2021/05/20 09:52:18;;;;;;;;;;;;;;;16.29;96.28;98473.09;1638371;86;20182;-71
2021/05/20 09:54:44;;;;;;;;;;;;;;;16.01;94.09;98482.85;1659678;86;20165;-71
2021/05/20 09:57:30;;;;;;;;;;;;;;;15.81;97.87;98479.39;1649987;86;20247;-69
2021/05/20 10:00:06;;;;;;;;;;;;;;;15.65;97.84;98480.33;1646215;86;20200;-69
2021/05/20 10:02:35;;;;;;;;;;;;;;;15.42;100.00;98480.41;1651089;86;21184;-72
2021/05/20 10:05:26;;;;;;;;;;;;;;;15.49;100.00;98488.08;1643340;86;20151;-71
2021/05/20 10:07:53;;;;;;;;;;;;;;;15.52;100.00;98484.75;1637455;85;20585;-70
2021/05/20 10:10:20;;;;;;;;;;;;;;;15.67;100.00;98487.58;1639398;86;20251;-71
2021/05/20 10:12:48;;;;;;;;;;;;;;;15.76;100.00;98483.59;1643799;86;20191;-70
2021/05/20 10:15:18;;;;;;;;;;;;;;;15.73;99.79;98487.73;1653243;86;21121;-69
2021/05/20 10:17:44;;;;;;;;;;;;;;;15.70;97.79;98494.30;1649925;86;20257;-71
2021/05/20 10:20:20;;;;;;;;;;;;;;;15.88;96.38;98494.61;1645397;86;20377;-71
2021/05/20 10:22:47;;;;;;;;;;;;;;;16.36;97.08;98495.08;1644488;86;20176;-70
2021/05/20 10:25:14;;;;;;;;;;;;;;;17.14;90.67;98490.19;1647915;84;20165;-72
2021/05/20 10:27:42;;;;;;;;;;;;;;;17.06;84.81;98481.53;1654311;86;21160;-71
2021/05/20 10:30:11;;;;;;;;;;;;;;;17.29;88.97;98488.87;1649986;85;20560;-71
2021/05/20 10:32:38;;;;;;;;;;;;;;;17.18;89.61;98491.71;1646648;86;20226;-72
2021/05/20 10:35:10;;;;;;;;;;;;;;;17.06;87.88;98490.45;1642040;86;20209;-73
2021/05/20 10:37:38;;;;;;;;;;;;;;;16.85;89.17;98490.31;1648686;86;20249;-71
2021/05/20 10:40:10;;;;;;;;;;;;;;;16.65;90.57;98483.61;1643283;86;21119;-71
2021/05/20 10:42:41;;;;;;;;;;;;;;;16.45;92.22;98493.17;1641860;86;20222;-72
2021/05/20 10:45:17;;;;;;;;;;;;;;;16.66;96.08;98497.98;1642306;86;20676;-71
2021/05/20 10:48:07;;;;;;;;;;;;;;;16.65;99.55;98491.73;1641859;86;20345;-71
2021/05/20 10:50:58;;;;;;;;;;;;;;;16.69;97.91;98494.05;1649599;86;20213;-71
2021/05/20 10:53:46;;;;;;;;;;;;;;;16.89;95.47;98499.41;1653042;86;21100;-72
2021/05/20 10:56:24;;;;;;;;;;;;;;;16.99;99.30;98494.77;1641317;86;20187;-71
2021/05/20 10:58:52;;;;;;;;;;;;;;;17.27;97.70;98492.46;1643891;86;20186;-71
2021/05/20 11:01:25;;;;;;;;;;;;;;;17.50;98.35;98499.25;1637547;86;20218;-72
2021/05/20 11:03:57;;;;;;;;;;;;;;;17.56;98.77;98499.33;1640045;86;20591;-71
2021/05/20 11:06:43;;;;;;;;;;;;;;;17.27;91.49;98504.12;1636105;85;21355;-72
2021/05/20 11:09:15;;;;;;;;;;;;;;;16.85;93.28;98490.31;1615008;86;20238;-69
2021/05/20 11:11:47;;;;;;;;;;;;;;;16.59;95.93;98503.08;1652284;84;20543;-71
2021/05/20 11:14:17;;;;;;;;;;;;;;;16.47;98.75;98501.78;1646625;85;20183;-71
2021/05/20 11:16:46;;;;;;;;;;;;;;;16.55;100.00;98498.05;1650800;86;20170;-71
2021/05/20 11:19:30;;;;;;;;;;;;;;;16.69;100.00;98503.54;1641294;86;21518;-69
2021/05/20 11:22:04;;;;;;;;;;;;;;;16.70;100.00;98515.95;1643906;84;20171;-69
2021/05/20 11:24:35;;;;;;;;;;;;;;;17.07;100.00;98521.85;1639613;86;20237;-71
2021/05/20 11:27:05;;;;;;;;;;;;;;;17.38;100.00;98526.83;1646871;85;20620;-70
2021/05/20 11:29:33;;;;;;;;;;;;;;;17.36;99.70;98522.50;1644656;85;20738;-70
2021/05/20 11:32:11;;;;;;;;;;;;;;;17.71;95.79;98531.91;1649594;86;21769;-70
2021/05/20 11:37:37;;;;;;;;;;;;;;;18.64;89.04;98517.87;1645047;86;20163;-70
2021/05/20 11:39:59;;;;;;;;;;;;;;;18.60;84.58;98523.72;1648218;86;20259;-70
2021/05/20 11:42:28;;;;;;;;;;;;;;;17.91;77.82;98514.11;1658066;86;20157;-70
2021/05/20 11:44:56;;;;;;;;;;;;;;;17.29;81.10;98517.34;1649516;86;21113;-70
2021/05/20 11:47:22;;;;;;;;;;;;;;;17.01;83.98;98521.80;1655608;86;20262;-70
2021/05/20 11:49:49;;;;;;;;;;;;;;;16.76;85.85;98520.67;1655084;85;20212;-70
2021/05/20 11:52:17;;;;;;;;;;;;;;;16.64;85.34;98518.60;1653405;86;20253;-70
2021/05/20 11:54:49;;;;;;;;;;;;;;;16.82;88.72;98522.69;1652891;86;20173;-70
2021/05/20 11:57:17;;;;;;;;;;;;;;;17.05;86.53;98521.94;1641305;85;21089;-70
2021/05/20 11:59:50;;;;;;;;;;;;;;;17.14;82.70;98519.45;1649349;86;20169;-70
2021/05/20 12:02:31;;;;;;;;;;;;;;;17.38;83.49;98509.20;1648977;86;20220;-71
2021/05/20 12:05:07;;;;;;;;;;;;;;;17.67;84.00;98526.88;1644297;86;20210;-70
2021/05/20 12:07:35;;;;;;;;;;;;;;;18.09;81.56;98520.80;1645890;84;20709;-70
2021/05/20 12:10:16;;;;;;;;;;;;;;;18.15;80.55;98517.58;1646242;85;21122;-71
2021/05/20 12:12:47;;;;;;;;;;;;;;;18.21;80.34;98532.55;1634436;86;20257;-71
2021/05/20 12:15:17;;;;;;;;;;;;;;;18.44;81.58;98525.44;1647570;85;20227;-71
2021/05/20 12:17:46;;;;;;;;;;;;;;;18.71;77.42;98517.88;1651265;86;20216;-70
2021/05/20 12:20:15;;;;;;;;;;;;;;;18.47;80.30;98519.91;1643513;86;20216;-71
2021/05/20 12:22:42;;;;;;;;;;;;;;;18.70;81.20;98514.95;1650689;86;21153;-73
2021/05/20 12:25:14;;;;;;;;;;;;;;;19.02;77.52;98516.13;1649401;85;20198;-70
2021/05/20 12:27:50;;;;;;;;;;;;;;;19.04;73.12;98505.70;1644683;86;20607;-71
2021/05/20 12:30:23;;;;;;;;;;;;;;;18.58;69.40;98516.47;1642647;86;20217;-71
2021/05/20 12:33:03;;;;;;;;;;;;;;;18.27;74.18;98509.26;1647157;85;20216;-71
2021/05/20 12:35:31;;;;;;;;;;;;;;;18.11;74.62;98513.13;1634906;86;21870;-72
2021/05/20 12:38:17;;;;;;;;;;;;;;;17.77;69.82;98531.16;1644093;86;20203;-72
2021/05/20 12:40:52;;;;;;;;;;;;;;;17.10;72.00;98530.72;1642051;86;20227;-71
2021/05/20 12:43:49;;;;;;;;;;;;;;;16.61;77.66;98513.01;1647460;86;20137;-72
2021/05/20 12:46:18;;;;;;;;;;;;;;;16.43;82.95;98537.94;1642760;86;20237;-73
2021/05/20 12:48:59;;;;;;;;;;;;;;;16.53;85.87;98532.21;1654071;85;21103;-73
2021/05/20 12:51:27;;;;;;;;;;;;;;;16.88;85.92;98529.55;1644092;86;20228;-71
2021/05/20 12:54:04;;;;;;;;;;;;;;;17.21;83.10;98539.30;1643810;86;20208;-72
2021/05/20 12:56:35;;;;;;;;;;;;;;;17.24;84.03;98528.36;1646693;86;20149;-70
2021/05/20 12:59:11;;;;;;;;;;;;;;;17.40;83.71;98525.38;1640679;86;20265;-70
2021/05/20 13:01:48;;;;;;;;;;;;;;;17.38;80.77;98536.32;1641928;86;20167;-69
2021/05/20 13:04:31;;;;;;;;;;;;;;;17.20;79.97;98543.14;1640012;86;20181;-72
2021/05/20 13:11:20;;;;;;;;;;;;;;;17.40;80.13;98549.80;1635277;86;21013;-68
2021/05/20 13:23:28;;;;;;;;;;;;;;;18.38;70.02;98544.43;1637324;86;20171;-69
2021/05/20 13:25:55;;;;;;;;;;;;;;;18.56;67.20;98552.68;1649764;86;20181;-71